createdAt,value
2022-11-14T00:02:21.292Z,18.23
2022-11-14T00:05:22.975Z,19.10
2022-11-14T00:08:28.419Z,19.60
2022-11-14T00:11:30.322Z,18.27
2022-11-14T00:14:32.104Z,18.27
2022-11-14T00:17:36.325Z,18.90
2022-11-14T00:20:37.919Z,18.73
2022-11-14T00:23:39.535Z,19.87
2022-11-14T00:26:41.117Z,19.30
2022-11-14T00:29:42.746Z,19.10
2022-11-14T00:32:44.372Z,19.53
2022-11-14T00:35:56.499Z,19.67
2022-11-14T00:38:58.152Z,19.57
2022-11-14T00:41:59.851Z,20.07
2022-11-14T00:45:01.530Z,19.40
2022-11-14T00:48:03.180Z,20.33
2022-11-14T00:51:04.948Z,19.10
2022-11-14T00:54:06.672Z,20.10
2022-11-14T00:57:08.295Z,19.13
2022-11-14T01:00:10.612Z,18.50
2022-11-14T01:03:12.275Z,19.13
2022-11-14T01:06:15.728Z,19.27
2022-11-14T01:09:17.375Z,19.40
2022-11-14T01:12:19.144Z,19.13
2022-11-14T01:15:44.700Z,17.67
2022-11-14T01:18:46.754Z,17.80
2022-11-14T01:21:48.410Z,17.83
2022-11-14T01:24:50.087Z,16.80
2022-11-14T01:27:51.728Z,18.27
2022-11-14T01:30:53.318Z,17.67
2022-11-14T01:33:55.309Z,18.00
2022-11-14T01:36:56.914Z,19.27
2022-11-14T01:39:58.535Z,17.57
2022-11-14T01:43:34.124Z,18.70
2022-11-14T01:46:41.642Z,18.73
2022-11-14T01:49:47.510Z,19.17
2022-11-14T01:52:49.189Z,18.67
2022-11-14T01:55:52.310Z,19.50
2022-11-14T01:59:05.025Z,18.67
2022-11-14T02:02:15.702Z,18.63
2022-11-14T02:05:18.488Z,19.83
2022-11-14T02:08:21.812Z,20.23
2022-11-14T02:11:23.743Z,19.60
2022-11-14T02:14:27.660Z,18.80
2022-11-14T02:17:31.018Z,18.93
2022-11-14T02:20:43.192Z,19.07
2022-11-14T02:23:44.831Z,17.93
2022-11-14T02:26:46.545Z,16.97
2022-11-14T02:29:48.160Z,18.47
2022-11-14T02:36:11.423Z,17.87
2022-11-14T02:39:13.026Z,19.47
2022-11-14T02:42:14.638Z,19.03
2022-11-14T02:45:16.319Z,19.30
2022-11-14T02:48:17.955Z,19.47
2022-11-14T02:51:19.576Z,19.57
2022-11-14T02:54:21.219Z,19.67
2022-11-14T02:57:22.823Z,19.83
2022-11-14T03:00:24.598Z,19.00
2022-11-14T03:03:26.292Z,19.50
2022-11-14T03:06:27.881Z,18.57
2022-11-14T03:09:29.555Z,19.63
2022-11-14T03:12:31.266Z,20.13
2022-11-14T03:15:36.411Z,19.13
2022-11-14T03:18:38.441Z,19.30
2022-11-14T03:21:40.037Z,19.57
2022-11-14T03:24:41.671Z,19.70
2022-11-14T03:27:43.273Z,19.70
2022-11-14T03:30:46.437Z,19.70
2022-11-14T03:33:51.051Z,19.73
2022-11-14T03:36:52.793Z,18.70
2022-11-14T03:39:58.577Z,20.17
2022-11-14T03:43:00.237Z,20.23
2022-11-14T03:46:02.808Z,19.33
2022-11-14T03:49:04.548Z,20.57
2022-11-14T03:52:06.263Z,19.83
2022-11-14T03:55:08.155Z,20.83
2022-11-14T03:58:09.786Z,18.63
2022-11-14T04:01:11.587Z,18.73
2022-11-14T04:04:13.917Z,18.50
2022-11-14T04:07:15.680Z,17.43
2022-11-14T04:10:18.127Z,19.97
2022-11-14T04:13:19.790Z,18.60
2022-11-14T04:16:21.454Z,18.40
2022-11-14T04:19:23.033Z,18.13
2022-11-14T04:22:24.658Z,17.93
2022-11-14T04:25:33.490Z,18.10
2022-11-14T04:28:35.253Z,18.20
2022-11-14T04:31:36.841Z,16.53
2022-11-14T04:34:38.850Z,18.00
2022-11-14T04:37:49.865Z,17.77
2022-11-14T04:40:52.506Z,17.53
2022-11-14T04:43:54.220Z,17.17
2022-11-14T04:46:56.011Z,17.93
2022-11-14T04:49:57.630Z,18.30
2022-11-14T04:52:59.236Z,18.47
2022-11-14T04:56:00.924Z,18.30
2022-11-14T04:59:02.586Z,18.67
2022-11-14T05:02:04.244Z,19.03
2022-11-14T05:05:06.203Z,20.37
2022-11-14T05:08:07.861Z,18.47
2022-11-14T05:11:15.432Z,21.97
2022-11-14T05:14:17.022Z,19.03
2022-11-14T05:17:18.654Z,18.60
2022-11-14T05:20:20.274Z,20.03
2022-11-14T05:23:23.503Z,17.23
2022-11-14T05:26:25.243Z,18.87
2022-11-14T05:29:26.916Z,19.47
2022-11-14T05:32:28.536Z,19.03
2022-11-14T05:35:30.167Z,19.27
2022-11-14T05:38:32.526Z,18.63
2022-11-14T05:41:34.374Z,18.13
2022-11-14T05:44:35.971Z,17.90
2022-11-14T05:47:37.593Z,18.47
2022-11-14T05:50:39.295Z,18.37
2022-11-14T05:53:41.829Z,17.90
2022-11-14T05:56:43.438Z,17.07
2022-11-14T05:59:48.260Z,17.10
2022-11-14T06:02:55.732Z,17.40
2022-11-14T06:05:59.287Z,18.53
2022-11-14T06:09:03.174Z,17.60
2022-11-14T06:12:07.727Z,16.43
2022-11-14T06:15:09.662Z,17.03
2022-11-14T06:18:11.312Z,17.27
2022-11-14T06:21:18.721Z,16.90
2022-11-14T06:24:20.346Z,17.43
2022-11-14T06:27:21.973Z,18.10
2022-11-14T06:30:24.553Z,17.57
2022-11-14T06:33:30.209Z,17.70
2022-11-14T06:36:31.994Z,18.73
2022-11-14T06:39:33.706Z,18.00
2022-11-14T06:42:35.432Z,18.07
2022-11-14T06:45:37.055Z,18.17
2022-11-14T06:48:39.244Z,16.60
2022-11-14T06:51:40.878Z,18.23
2022-11-14T06:54:42.565Z,17.50
2022-11-14T06:57:52.273Z,16.97
2022-11-14T07:00:54.339Z,17.20
2022-11-14T07:04:01.648Z,17.77
2022-11-14T07:07:05.466Z,18.03
2022-11-14T07:10:07.399Z,16.70
2022-11-14T07:13:10.446Z,17.87
2022-11-14T07:16:12.147Z,17.37
2022-11-14T07:19:14.004Z,16.43
2022-11-14T07:22:15.673Z,16.47
2022-11-14T07:25:17.389Z,16.90
2022-11-14T07:28:19.392Z,16.60
2022-11-14T07:31:21.287Z,17.33
2022-11-14T07:34:22.971Z,16.27
2022-11-14T07:37:24.766Z,17.33
2022-11-14T07:40:26.758Z,17.60
2022-11-14T07:43:29.281Z,15.23
2022-11-14T07:46:30.972Z,16.60
2022-11-14T07:49:32.754Z,15.77
2022-11-14T07:52:36.480Z,15.73
2022-11-14T07:55:39.086Z,15.73
2022-11-14T07:58:41.844Z,15.30
2022-11-14T08:01:43.532Z,15.30
2022-11-14T08:04:48.273Z,15.27
2022-11-14T08:07:53.443Z,15.87
2022-11-14T08:10:59.147Z,14.63
2022-11-14T08:14:00.884Z,15.50
2022-11-14T08:17:02.496Z,15.53
2022-11-14T08:20:05.715Z,16.00
2022-11-14T08:23:07.744Z,15.90
2022-11-14T08:26:09.542Z,15.17
2022-11-14T08:29:11.377Z,14.90
2022-11-14T08:32:13.199Z,15.00
2022-11-14T08:35:15.067Z,14.87
2022-11-14T08:38:18.875Z,15.37
2022-11-14T08:41:20.538Z,14.53
2022-11-14T08:44:22.503Z,15.07
2022-11-14T08:47:26.914Z,14.43
2022-11-14T08:50:28.572Z,14.43
2022-11-14T08:53:30.908Z,15.10
2022-11-14T08:56:32.691Z,14.17
2022-11-14T08:59:34.585Z,14.07
2022-11-14T09:02:36.266Z,14.20
2022-11-14T09:05:37.968Z,13.73
2022-11-14T09:08:42.906Z,13.97
2022-11-14T09:11:44.589Z,13.07
2022-11-14T09:14:46.241Z,13.37
2022-11-14T09:17:48.113Z,13.70
2022-11-14T09:20:49.708Z,13.07
2022-11-14T09:23:51.489Z,12.70
2022-11-14T09:26:57.397Z,17.60
2022-11-14T09:29:59.040Z,13.33
2022-11-14T09:33:11.138Z,12.30
2022-11-14T09:36:18.522Z,12.57
2022-11-14T09:39:20.170Z,12.83
2022-11-14T09:42:59.621Z,12.30
2022-11-14T09:46:02.716Z,12.30
2022-11-14T09:49:25.410Z,11.93
2022-11-14T09:52:46.271Z,12.60
2022-11-14T09:55:47.990Z,12.27
2022-11-14T09:58:49.654Z,11.87
2022-11-14T10:02:00.585Z,11.00
2022-11-14T10:05:17.293Z,12.83
2022-11-14T10:08:33.932Z,12.23
2022-11-14T10:11:39.623Z,12.60
2022-11-14T10:15:06.036Z,12.63
2022-11-14T10:18:33.806Z,11.70
2022-11-14T10:21:54.219Z,12.53
2022-11-14T10:25:19.489Z,11.73
2022-11-14T10:28:48.828Z,12.23
2022-11-14T10:32:22.523Z,11.07
2022-11-14T10:35:39.422Z,12.73
2022-11-14T10:38:59.411Z,11.33
2022-11-14T10:42:36.390Z,11.17
2022-11-14T10:45:43.233Z,11.70
2022-11-14T10:48:47.226Z,13.00
2022-11-14T10:52:01.638Z,12.80
2022-11-14T10:55:20.687Z,11.17
2022-11-14T10:58:24.253Z,11.20
2022-11-14T11:01:33.574Z,11.77
2022-11-14T11:04:36.963Z,11.07
2022-11-14T11:08:28.317Z,11.47
2022-11-14T11:11:29.496Z,11.27
2022-11-14T11:14:31.837Z,11.77
2022-11-14T11:17:40.079Z,11.60
2022-11-14T11:20:44.666Z,11.17
2022-11-14T11:23:50.988Z,11.60
2022-11-14T11:27:30.420Z,11.30
2022-11-14T11:30:32.260Z,10.97
2022-11-14T11:33:36.052Z,11.30
2022-11-14T11:36:42.458Z,10.43
2022-11-14T11:39:54.633Z,11.00
2022-11-14T11:46:29.152Z,11.10
2022-11-14T11:49:30.815Z,10.57
2022-11-14T11:53:12.462Z,10.70
2022-11-14T11:56:19.361Z,10.73
2022-11-14T11:59:33.560Z,10.57
2022-11-14T12:02:46.339Z,10.17
2022-11-14T12:06:25.191Z,11.80
2022-11-14T12:10:08.952Z,11.17
2022-11-14T12:13:36.815Z,11.17
2022-11-14T12:17:12.529Z,10.80
2022-11-14T12:20:26.125Z,10.63
2022-11-14T12:23:52.317Z,10.50
2022-11-14T12:27:17.379Z,10.07
2022-11-14T12:30:24.185Z,10.87
2022-11-14T12:33:34.209Z,11.23
2022-11-14T12:36:37.636Z,10.00
2022-11-14T12:39:39.489Z,9.93
2022-11-14T12:42:47.184Z,10.83
2022-11-14T12:45:51.722Z,10.27
2022-11-14T12:48:53.432Z,10.87
2022-11-14T12:51:55.025Z,11.23
2022-11-14T12:54:56.668Z,12.43
2022-11-14T12:58:27.161Z,12.47
2022-11-14T13:01:53.806Z,11.53
2022-11-14T13:05:24.752Z,12.07
2022-11-14T13:08:57.842Z,11.50
2022-11-14T13:12:36.719Z,12.27
2022-11-14T13:16:12.113Z,11.83
2022-11-14T13:19:42.796Z,10.47
2022-11-14T13:22:46.448Z,10.47
2022-11-14T13:25:48.062Z,10.30
2022-11-14T13:28:50.975Z,9.43
2022-11-14T13:31:52.654Z,10.77
2022-11-14T13:35:03.194Z,11.53
2022-11-14T13:38:38.390Z,10.90
2022-11-14T13:42:10.313Z,11.57
2022-11-14T13:45:18.683Z,10.70
2022-11-14T13:48:32.619Z,11.07
2022-11-14T13:51:43.265Z,11.03
2022-11-14T13:54:49.836Z,11.73
2022-11-14T13:58:02.005Z,11.30
2022-11-14T14:01:15.448Z,10.97
2022-11-14T14:04:26.053Z,11.60
2022-11-14T14:07:52.770Z,11.40
2022-11-14T14:11:00.005Z,11.27
2022-11-14T14:14:43.847Z,10.33
2022-11-14T14:18:02.474Z,10.40
2022-11-14T14:21:16.027Z,10.13
2022-11-14T14:24:55.657Z,11.57
2022-11-14T14:28:38.751Z,10.43
2022-11-14T14:31:42.315Z,11.73
2022-11-14T14:34:44.188Z,11.60
2022-11-14T14:37:51.659Z,10.93
2022-11-14T14:40:56.889Z,12.67
2022-11-14T14:44:00.056Z,12.03
2022-11-14T14:47:32.354Z,12.57
2022-11-14T14:50:39.636Z,11.13
2022-11-14T14:53:51.800Z,11.67
2022-11-14T14:57:04.991Z,12.57
2022-11-14T15:00:28.607Z,12.23
2022-11-14T15:03:49.755Z,12.67
2022-11-14T15:06:51.908Z,13.40
2022-11-14T15:10:01.306Z,11.57
2022-11-14T15:13:11.180Z,13.03
2022-11-14T15:16:13.030Z,13.27
2022-11-14T15:19:16.671Z,15.70
2022-11-14T15:22:18.267Z,13.53
2022-11-14T15:25:20.317Z,12.17
2022-11-14T15:28:30.269Z,12.60
2022-11-14T15:31:35.092Z,12.53
2022-11-14T15:34:38.522Z,11.60
2022-11-14T15:37:40.273Z,10.70
2022-11-14T15:40:41.961Z,11.40
2022-11-14T15:43:43.540Z,10.90
2022-11-14T15:46:49.574Z,13.33
2022-11-14T15:50:02.559Z,12.30
2022-11-14T15:53:34.725Z,11.97
2022-11-14T15:56:36.390Z,10.03
2022-11-14T15:59:38.093Z,11.37
2022-11-14T16:02:55.619Z,11.47
2022-11-14T16:05:57.228Z,10.73
2022-11-14T16:08:58.890Z,9.93
2022-11-14T16:12:00.578Z,10.47
2022-11-14T16:15:02.213Z,10.00
2022-11-14T16:18:05.329Z,10.27
2022-11-14T16:21:14.259Z,9.90
2022-11-14T16:24:22.771Z,9.73
2022-11-14T16:27:50.305Z,9.90
2022-11-14T16:30:51.918Z,9.47
2022-11-14T16:33:59.848Z,9.83
2022-11-14T16:37:03.034Z,9.73
2022-11-14T16:40:05.444Z,9.27
2022-11-14T16:43:13.629Z,10.13
2022-11-14T16:46:15.265Z,9.90
2022-11-14T16:49:18.913Z,9.87
2022-11-14T16:52:20.594Z,9.53
2022-11-14T16:55:22.248Z,10.33
2022-11-14T16:58:26.059Z,10.20
2022-11-14T17:01:27.732Z,10.30
2022-11-14T17:04:29.561Z,10.93
2022-11-14T17:07:33.293Z,11.33
2022-11-14T17:10:43.340Z,11.30
2022-11-14T17:13:45.003Z,12.10
2022-11-14T17:16:47.011Z,11.07
2022-11-14T17:19:48.926Z,10.17
2022-11-14T17:22:50.586Z,11.63
2022-11-14T17:25:52.306Z,11.20
2022-11-14T17:28:54.063Z,12.83
2022-11-14T17:31:55.717Z,15.37
2022-11-14T17:34:57.901Z,12.47
2022-11-14T17:38:07.583Z,11.83
2022-11-14T17:41:09.232Z,11.83
2022-11-14T17:44:11.198Z,11.83
2022-11-14T17:47:12.865Z,11.40
2022-11-14T17:50:17.402Z,11.10
2022-11-14T17:53:19.589Z,11.37
2022-11-14T17:56:24.108Z,11.30
2022-11-14T17:59:25.781Z,11.40
2022-11-14T18:02:27.401Z,11.37
2022-11-14T18:05:29.080Z,10.77
2022-11-14T18:08:31.189Z,11.23
2022-11-14T18:11:37.070Z,10.17
2022-11-14T18:14:40.875Z,9.67
2022-11-14T18:17:42.556Z,9.93
2022-11-14T18:20:44.308Z,9.43
2022-11-14T18:23:54.491Z,9.53
2022-11-14T18:26:58.176Z,8.63
2022-11-14T18:30:19.781Z,9.93
2022-11-14T18:33:25.007Z,9.43
2022-11-14T18:36:29.450Z,9.33
2022-11-14T18:39:31.170Z,8.93
2022-11-14T18:42:32.812Z,8.77
2022-11-14T18:45:35.711Z,9.03
2022-11-14T18:48:39.184Z,9.00
2022-11-14T18:51:42.100Z,8.73
2022-11-14T18:54:43.905Z,8.50
2022-11-14T18:57:45.521Z,8.47
2022-11-14T19:00:47.196Z,8.43
2022-11-14T19:03:51.637Z,8.57
2022-11-14T19:06:55.921Z,8.47
2022-11-14T19:09:57.595Z,7.67
2022-11-14T19:12:59.391Z,7.50
2022-11-14T19:16:03.466Z,7.40
2022-11-14T19:19:06.268Z,7.43
2022-11-14T19:22:09.438Z,7.20
2022-11-14T19:25:11.063Z,7.67
2022-11-14T19:28:26.349Z,6.90
2022-11-14T19:31:30.279Z,7.10
2022-11-14T19:34:31.959Z,7.00
2022-11-14T19:37:33.582Z,7.20
2022-11-14T19:40:37.522Z,6.83
2022-11-14T19:43:46.198Z,7.33
2022-11-14T19:46:48.395Z,6.40
2022-11-14T19:49:50.208Z,6.90
2022-11-14T19:52:52.421Z,6.33
2022-11-14T19:56:02.739Z,6.60
2022-11-14T19:59:09.521Z,7.07
2022-11-14T20:02:14.829Z,6.70
2022-11-14T20:05:16.568Z,6.33
2022-11-14T20:08:18.249Z,6.97
2022-11-14T20:11:20.983Z,6.40
2022-11-14T20:14:22.655Z,6.13
2022-11-14T20:17:24.357Z,5.70
2022-11-14T20:20:26.026Z,5.80
2022-11-14T20:23:27.946Z,6.33
2022-11-14T20:26:30.871Z,5.97
2022-11-14T20:29:32.584Z,5.93
2022-11-14T20:32:34.227Z,6.20
2022-11-14T20:35:37.488Z,5.83
2022-11-14T20:38:41.147Z,5.80
2022-11-14T20:41:43.096Z,6.13
2022-11-14T20:44:44.721Z,5.40
2022-11-14T20:47:46.358Z,6.00
2022-11-14T20:50:50.204Z,5.60
2022-11-14T20:53:54.091Z,5.30
2022-11-14T20:56:55.735Z,5.20
2022-11-14T20:59:57.392Z,5.70
2022-11-14T21:02:59.121Z,5.27
2022-11-14T21:06:02.027Z,5.67
2022-11-14T21:09:03.797Z,5.37
2022-11-14T21:12:05.606Z,5.40
2022-11-14T21:15:07.833Z,5.33
2022-11-14T21:18:12.591Z,5.37
2022-11-14T21:21:17.188Z,5.13
2022-11-14T21:24:18.770Z,5.10
2022-11-14T21:27:20.520Z,5.60
2022-11-14T21:30:25.849Z,4.93
2022-11-14T21:33:29.450Z,5.00
2022-11-14T21:36:47.474Z,4.77
2022-11-14T21:39:49.264Z,5.00
2022-11-14T21:42:50.850Z,4.50
2022-11-14T21:46:04.247Z,4.60
2022-11-14T21:49:05.842Z,4.67
2022-11-14T21:52:07.468Z,5.23
2022-11-14T21:55:09.296Z,4.87
2022-11-14T21:58:12.741Z,5.23
2022-11-14T22:01:40.725Z,4.20
2022-11-14T22:04:42.433Z,4.50
2022-11-14T22:07:44.025Z,4.87
2022-11-14T22:10:45.603Z,5.03
2022-11-14T22:13:47.316Z,5.20
2022-11-14T22:16:49.007Z,4.67
2022-11-14T22:19:50.642Z,4.63
2022-11-14T22:22:54.566Z,4.70
2022-11-14T22:26:00.344Z,4.97
2022-11-14T22:29:02.128Z,5.03
2022-11-14T22:32:03.893Z,4.57
2022-11-14T22:35:06.178Z,4.40
2022-11-14T22:38:18.068Z,4.10
2022-11-14T22:41:32.347Z,4.27
2022-11-14T22:44:35.004Z,4.57
2022-11-14T22:47:36.615Z,4.57
2022-11-14T22:50:38.231Z,4.23
2022-11-14T22:53:40.341Z,4.73
2022-11-14T22:56:41.978Z,4.80
2022-11-14T22:59:43.567Z,4.60
2022-11-14T23:02:45.206Z,4.57
2022-11-14T23:05:47.622Z,4.20
2022-11-14T23:08:49.688Z,4.53
2022-11-14T23:11:51.328Z,4.63
2022-11-14T23:14:52.904Z,4.53
2022-11-14T23:17:54.469Z,4.80
2022-11-14T23:21:04.631Z,4.60
2022-11-14T23:24:12.496Z,4.40
2022-11-14T23:27:14.100Z,5.10
2022-11-14T23:30:16.490Z,4.90
2022-11-14T23:33:18.188Z,4.40
2022-11-14T23:36:20.102Z,4.50
2022-11-14T23:39:21.691Z,5.10
2022-11-14T23:42:23.547Z,4.73
2022-11-14T23:45:25.142Z,4.47
2022-11-14T23:48:27.012Z,4.60
2022-11-14T23:51:28.799Z,4.90
2022-11-14T23:54:30.435Z,4.40
2022-11-14T23:57:32.179Z,4.23
